createdAt,value
2023-05-10T00:08:04.490Z,0.1
2023-05-10T00:20:04.613Z,0.1
2023-05-10T00:32:04.643Z,0.2
2023-05-10T00:44:04.530Z,0.2
2023-05-10T00:56:04.511Z,0.2
2023-05-10T01:08:04.673Z,0.3
2023-05-10T01:20:04.657Z,0.3
2023-05-10T01:32:04.608Z,0.3
2023-05-10T01:44:04.581Z,0.3
2023-05-10T01:56:04.687Z,0.3
2023-05-10T02:08:04.687Z,0.4
2023-05-10T02:20:04.609Z,0.4
2023-05-10T02:32:04.897Z,0.4
2023-05-10T02:44:04.739Z,0.4
2023-05-10T02:56:04.700Z,0.4
2023-05-10T03:08:04.640Z,0.5
2023-05-10T03:20:04.893Z,0.5
2023-05-10T03:32:04.794Z,0.5
2023-05-10T03:44:04.753Z,0.5
2023-05-10T03:56:04.693Z,0.5
2023-05-10T04:08:04.891Z,0.6
2023-05-10T04:20:04.841Z,0.6
2023-05-10T04:32:04.806Z,0.6
2023-05-10T04:44:04.722Z,0.6
2023-05-10T04:56:04.893Z,0.6
2023-05-10T05:08:04.835Z,0.7
2023-05-10T05:20:04.821Z,0.7
2023-05-10T05:32:05.021Z,0.8
2023-05-10T05:44:04.938Z,0.8
2023-05-10T05:56:04.860Z,0.8
2023-05-10T06:08:04.893Z,0.8
2023-05-10T06:20:05.000Z,0.8
2023-05-10T06:32:04.959Z,0.9
2023-05-10T06:44:04.894Z,0.9
2023-05-10T06:56:05.150Z,0.9
2023-05-10T07:08:05.056Z,0.9
2023-05-10T07:20:04.984Z,0.9
2023-05-10T07:32:04.980Z,1
2023-05-10T07:44:05.101Z,1
2023-05-10T07:56:05.035Z,1
2023-05-10T08:08:05.040Z,1
2023-05-10T08:20:04.965Z,1
2023-05-10T08:32:05.150Z,1.1
2023-05-10T08:44:05.102Z,1.1
2023-05-10T08:56:05.062Z,1.1
2023-05-10T09:08:05.013Z,1.2
2023-05-10T09:20:05.180Z,1.2
2023-05-10T09:32:05.120Z,1.2
2023-05-10T09:44:05.649Z,1.2
2023-05-10T09:56:05.218Z,1.2
2023-05-10T10:08:05.238Z,1.3
2023-05-10T10:20:05.151Z,1.3
2023-05-10T10:32:05.129Z,1.3
2023-05-10T10:44:05.363Z,1.3
2023-05-10T10:56:05.236Z,1.3
2023-05-10T11:08:05.181Z,1.4
2023-05-10T11:20:05.146Z,1.4
2023-05-10T11:32:05.288Z,1.4
2023-05-10T11:44:05.315Z,1.4
2023-05-10T11:56:05.224Z,1.4
2023-05-10T12:08:05.319Z,1.5
2023-05-10T12:20:05.331Z,1.5
2023-05-10T12:32:05.345Z,1.6
2023-05-10T12:44:05.276Z,1.6
2023-05-10T12:56:05.426Z,1.6
2023-05-10T13:08:05.360Z,1.6
2023-05-10T13:20:05.340Z,1.6
2023-05-10T13:32:05.270Z,1.7
2023-05-10T13:44:05.491Z,1.7
2023-05-10T13:56:05.393Z,1.7
2023-05-10T14:08:05.384Z,1.7
2023-05-10T14:20:05.341Z,1.7
2023-05-10T14:32:05.590Z,1.8
2023-05-10T14:44:05.487Z,1.8
2023-05-10T14:56:05.409Z,1.8
2023-05-10T15:08:05.340Z,1.8
2023-05-10T15:20:05.569Z,1.8
2023-05-10T15:32:05.471Z,1.9
2023-05-10T15:44:05.484Z,1.9
2023-05-10T15:56:05.594Z,1.9
2023-05-10T16:08:05.619Z,1.9
2023-05-10T16:20:05.551Z,1.9
2023-05-10T16:32:05.528Z,2
2023-05-10T16:44:05.472Z,2
2023-05-10T16:56:05.652Z,2
2023-05-10T17:08:05.612Z,2.1
2023-05-10T17:20:05.553Z,2.1
2023-05-10T17:32:05.791Z,2.1
2023-05-10T17:44:05.697Z,2.1
2023-05-10T17:56:05.728Z,2.1
2023-05-10T18:08:05.574Z,2.2
2023-05-10T18:20:05.715Z,2.2
2023-05-10T18:32:05.699Z,2.2
2023-05-10T18:44:05.656Z,2.2
2023-05-10T18:56:05.628Z,2.2
2023-05-10T19:08:05.740Z,2.3
2023-05-10T19:20:05.763Z,2.3
2023-05-10T19:32:05.695Z,2.3
2023-05-10T19:44:05.864Z,2.3
2023-05-10T19:56:05.771Z,2.3
2023-05-10T20:08:05.758Z,2.4
2023-05-10T20:20:05.732Z,2.4
2023-05-10T20:32:05.877Z,2.5
2023-05-10T20:44:05.817Z,2.5
2023-05-10T20:56:05.799Z,2.5
2023-05-10T21:08:05.717Z,2.6
2023-05-10T21:20:05.978Z,2.6
2023-05-10T21:32:05.855Z,2.7
2023-05-10T21:44:05.974Z,2.7
2023-05-10T21:56:05.842Z,2.7
2023-05-10T22:08:05.827Z,2.8
2023-05-10T22:20:05.983Z,2.8
2023-05-10T22:32:06.180Z,2.8
2023-05-10T22:44:06.332Z,2.8
2023-05-10T22:56:05.856Z,2.8
2023-05-10T23:08:06.001Z,0
2023-05-10T23:20:06.003Z,0
2023-05-10T23:32:05.936Z,0.1
2023-05-10T23:44:05.898Z,0.1
2023-05-10T23:56:06.031Z,0.1
